Time;durP1;ratioP1;P1;durP2;ratioP2;P2;SDS_P1;SDS_P2;PMS_P1;PMS_P2;Temp;Humidity;BMP_temperature;BMP_pressure;BME280_temperature;BME280_humidity;BME280_pressure;Samples;Min_cycle;Max_cycle;Signal;HPM_P1;HPM_P2
2023/10/28 00:02:49;;;;;;;2.63;2.38;;;;;;;;;;10465633;28;20272;-74
2023/10/28 00:07:51;;;;;;;2.53;2.40;;;;;;;;;;10462218;28;20210;-73
2023/10/28 00:12:53;;;;;;;4.80;2.38;;;;;;;;;;10457763;28;20691;-74
2023/10/28 00:17:54;;;;;;;2.42;2.22;;;;;;;;;;10464835;28;20203;-74
2023/10/28 00:22:55;;;;;;;2.35;2.25;;;;;;;;;;10444589;28;20210;-75
2023/10/28 00:27:57;;;;;;;6.25;2.65;;;;;;;;;;10448938;28;20280;-73
2023/10/28 00:32:58;;;;;;;2.83;2.72;;;;;;;;;;10464834;28;20235;-74
2023/10/28 00:37:59;;;;;;;3.00;2.70;;;;;;;;;;10464899;28;20936;-74
2023/10/28 00:43:01;;;;;;;3.00;2.80;;;;;;;;;;10466323;28;20221;-74
2023/10/28 00:48:02;;;;;;;3.08;2.80;;;;;;;;;;10461149;28;20623;-77
2023/10/28 00:53:04;;;;;;;2.92;2.67;;;;;;;;;;10463625;28;20261;-74
2023/10/28 00:58:06;;;;;;;6.15;3.15;;;;;;;;;;10465145;28;20269;-77
2023/10/28 01:03:09;;;;;;;2.70;2.50;;;;;;;;;;10462857;28;20245;-74
2023/10/28 01:08:10;;;;;;;3.25;2.95;;;;;;;;;;10462251;28;20229;-74
2023/10/28 01:13:11;;;;;;;3.15;2.28;;;;;;;;;;10458600;28;20226;-77
2023/10/28 01:18:13;;;;;;;2.80;2.70;;;;;;;;;;10461693;28;20211;-74
2023/10/28 01:23:14;;;;;;;2.80;2.40;;;;;;;;;;10457129;28;20287;-73
2023/10/28 01:28:18;;;;;;;2.92;2.60;;;;;;;;;;10440913;28;20234;-76
2023/10/28 01:33:19;;;;;;;2.42;2.33;;;;;;;;;;10440676;28;20214;-74
2023/10/28 01:38:23;;;;;;;2.42;2.25;;;;;;;;;;10435408;28;20740;-75
2023/10/28 01:43:24;;;;;;;2.55;2.38;;;;;;;;;;10454440;28;20202;-75
2023/10/28 01:48:26;;;;;;;2.40;2.30;;;;;;;;;;10461512;28;20255;-74
2023/10/28 01:53:27;;;;;;;2.72;2.60;;;;;;;;;;10460688;28;20210;-75
2023/10/28 01:58:32;;;;;;;2.83;2.63;;;;;;;;;;10449369;28;20640;-74
2023/10/28 02:03:33;;;;;;;2.50;2.35;;;;;;;;;;10436463;28;20257;-75
2023/10/28 02:08:34;;;;;;;1.98;1.88;;;;;;;;;;10447827;28;20206;-75
2023/10/28 02:13:35;;;;;;;2.53;2.33;;;;;;;;;;10440099;28;20222;-74
2023/10/28 02:18:36;;;;;;;2.47;2.28;;;;;;;;;;10453700;28;20206;-74
2023/10/28 02:23:37;;;;;;;2.95;2.58;;;;;;;;;;10439757;28;20225;-75
2023/10/28 02:28:38;;;;;;;2.35;2.25;;;;;;;;;;10428406;28;20767;-74
2023/10/28 02:33:39;;;;;;;3.70;2.90;;;;;;;;;;10412571;28;20227;-74
2023/10/28 02:38:41;;;;;;;3.47;3.28;;;;;;;;;;10414480;28;20206;-74
2023/10/28 02:43:42;;;;;;;3.42;3.13;;;;;;;;;;10416168;28;20249;-74
2023/10/28 02:48:43;;;;;;;2.83;2.63;;;;;;;;;;10404429;28;20735;-74
2023/10/28 02:53:44;;;;;;;3.30;3.10;;;;;;;;;;10399815;28;20214;-73
2023/10/28 02:58:45;;;;;;;6.03;3.08;;;;;;;;;;10416906;28;20301;-74
2023/10/28 03:03:46;;;;;;;3.42;3.10;;;;;;;;;;10412364;28;20226;-74
2023/10/28 03:08:47;;;;;;;3.75;3.50;;;;;;;;;;10400005;28;20242;-74
2023/10/28 03:13:48;;;;;;;3.78;3.42;;;;;;;;;;10416783;28;20263;-74
2023/10/28 03:18:49;;;;;;;3.47;2.70;;;;;;;;;;10400499;28;20305;-74
2023/10/28 03:23:51;;;;;;;3.08;2.78;;;;;;;;;;10419637;28;20264;-75
2023/10/28 03:28:52;;;;;;;3.00;2.78;;;;;;;;;;10418764;28;20257;-74
2023/10/28 03:33:54;;;;;;;3.97;3.28;;;;;;;;;;10457546;28;20252;-74
2023/10/28 03:38:57;;;;;;;6.30;2.90;;;;;;;;;;10439559;28;20353;-75
2023/10/28 03:43:58;;;;;;;4.10;2.92;;;;;;;;;;10456929;28;20209;-74
2023/10/28 03:48:59;;;;;;;4.07;3.35;;;;;;;;;;10458845;28;20355;-74
2023/10/28 03:54:00;;;;;;;3.28;3.03;;;;;;;;;;10456881;28;20229;-74
2023/10/28 03:59:01;;;;;;;3.22;2.92;;;;;;;;;;10455417;28;20205;-74
2023/10/28 04:04:04;;;;;;;3.83;3.13;;;;;;;;;;10449795;28;20627;-74
2023/10/28 04:09:07;;;;;;;2.47;2.33;;;;;;;;;;10422028;28;20215;-78
2023/10/28 04:14:11;;;;;;;4.68;2.50;;;;;;;;;;10445327;28;20720;-74
2023/10/28 04:19:12;;;;;;;2.33;2.20;;;;;;;;;;10453164;28;20211;-73
2023/10/28 04:24:13;;;;;;;3.10;2.72;;;;;;;;;;10451423;28;20324;-77
2023/10/28 04:29:14;;;;;;;5.20;3.08;;;;;;;;;;10460581;28;20292;-74
2023/10/28 04:34:15;;;;;;;3.15;2.95;;;;;;;;;;10466969;28;20775;-77
2023/10/28 04:39:16;;;;;;;3.22;2.92;;;;;;;;;;10453726;28;20207;-74
2023/10/28 04:44:18;;;;;;;3.63;3.33;;;;;;;;;;10446988;28;20229;-75
2023/10/28 04:49:19;;;;;;;5.47;3.70;;;;;;;;;;10464258;28;20221;-75
2023/10/28 04:54:20;;;;;;;4.25;3.60;;;;;;;;;;10467385;28;20214;-74
2023/10/28 04:59:21;;;;;;;3.45;3.17;;;;;;;;;;10463129;28;20214;-75
2023/10/28 05:04:27;;;;;;;3.58;3.28;;;;;;;;;;10446392;28;20265;-74
2023/10/28 05:09:28;;;;;;;8.13;5.22;;;;;;;;;;10453544;28;21062;-74
2023/10/28 05:14:29;;;;;;;5.63;3.70;;;;;;;;;;10441078;28;20219;-74
2023/10/28 05:19:30;;;;;;;5.65;3.80;;;;;;;;;;10452921;28;20210;-74
2023/10/28 05:24:31;;;;;;;4.68;3.33;;;;;;;;;;10455596;28;20276;-74
2023/10/28 05:29:32;;;;;;;4.75;3.65;;;;;;;;;;10446601;28;20246;-74
2023/10/28 05:34:33;;;;;;;4.63;3.78;;;;;;;;;;10454485;28;20221;-73
2023/10/28 05:39:34;;;;;;;5.80;4.18;;;;;;;;;;10452746;28;20210;-74
2023/10/28 05:44:36;;;;;;;4.90;3.35;;;;;;;;;;10442382;28;20210;-74
2023/10/28 05:49:37;;;;;;;5.45;3.67;;;;;;;;;;10454794;28;20275;-73
2023/10/28 05:54:38;;;;;;;4.82;3.75;;;;;;;;;;10456983;28;20584;-74
2023/10/28 05:59:39;;;;;;;4.32;3.38;;;;;;;;;;10458788;28;20214;-74
2023/10/28 06:04:41;;;;;;;4.03;3.15;;;;;;;;;;10449875;28;20218;-73
2023/10/28 06:09:43;;;;;;;5.47;3.35;;;;;;;;;;10445713;28;20653;-74
2023/10/28 06:14:44;;;;;;;4.07;3.78;;;;;;;;;;10452729;28;20225;-73
2023/10/28 06:19:45;;;;;;;6.78;4.20;;;;;;;;;;10460072;28;20214;-73
2023/10/28 06:24:46;;;;;;;4.65;4.25;;;;;;;;;;10453175;28;20221;-74
2023/10/28 06:29:48;;;;;;;5.93;4.07;;;;;;;;;;10450120;28;20229;-76
2023/10/28 06:34:49;;;;;;;5.97;3.72;;;;;;;;;;10451446;28;20226;-74
2023/10/28 06:39:50;;;;;;;5.78;4.55;;;;;;;;;;10453459;28;20302;-74
2023/10/28 06:44:51;;;;;;;5.15;3.78;;;;;;;;;;10444032;28;20272;-75
2023/10/28 06:49:54;;;;;;;4.43;3.67;;;;;;;;;;10435897;28;20233;-74
2023/10/28 06:54:56;;;;;;;5.47;4.28;;;;;;;;;;10450519;28;20211;-75
2023/10/28 06:59:58;;;;;;;4.63;3.80;;;;;;;;;;10455668;28;20680;-75
2023/10/28 07:05:00;;;;;;;5.85;3.90;;;;;;;;;;10433406;28;20371;-74
2023/10/28 07:10:01;;;;;;;6.40;4.28;;;;;;;;;;10450878;28;20209;-77
2023/10/28 07:15:02;;;;;;;4.13;3.83;;;;;;;;;;10437535;28;20230;-74
2023/10/28 07:20:03;;;;;;;7.40;4.47;;;;;;;;;;10435768;28;20569;-74
2023/10/28 07:25:06;;;;;;;5.40;4.43;;;;;;;;;;10437933;28;20203;-75
2023/10/28 07:30:10;;;;;;;5.20;4.28;;;;;;;;;;10443666;28;20856;-74
2023/10/28 07:35:11;;;;;;;5.82;4.68;;;;;;;;;;10456058;28;20221;-75
2023/10/28 07:40:12;;;;;;;4.80;4.15;;;;;;;;;;10458227;28;20175;-76
2023/10/28 07:45:13;;;;;;;6.22;4.88;;;;;;;;;;10451675;28;20204;-75
2023/10/28 07:50:15;;;;;;;6.97;4.72;;;;;;;;;;10452216;28;20599;-76
2023/10/28 07:55:16;;;;;;;6.82;4.72;;;;;;;;;;10450851;28;20221;-75
2023/10/28 08:00:17;;;;;;;4.95;4.30;;;;;;;;;;10457801;28;20182;-77
2023/10/28 08:05:18;;;;;;;8.63;4.95;;;;;;;;;;10463160;28;20228;-75
2023/10/28 08:10:22;;;;;;;5.35;4.72;;;;;;;;;;10454865;28;20273;-75
2023/10/28 08:15:24;;;;;;;6.43;4.97;;;;;;;;;;10469728;28;20315;-75
2023/10/28 08:20:26;;;;;;;5.38;4.53;;;;;;;;;;10463773;28;20396;-75
2023/10/28 08:25:27;;;;;;;4.32;3.92;;;;;;;;;;10458651;28;20237;-75
2023/10/28 08:30:29;;;;;;;4.93;4.43;;;;;;;;;;10461496;28;20309;-76
2023/10/28 08:35:30;;;;;;;3.92;3.65;;;;;;;;;;10467185;28;20226;-75
2023/10/28 08:40:31;;;;;;;5.07;3.35;;;;;;;;;;10459339;28;20997;-75
2023/10/28 08:45:32;;;;;;;5.03;3.30;;;;;;;;;;10435749;28;20267;-75
2023/10/28 08:50:33;;;;;;;2.13;2.03;;;;;;;;;;10456996;28;20942;-75
2023/10/28 08:55:36;;;;;;;4.82;2.13;;;;;;;;;;10448782;28;20230;-75
2023/10/28 09:00:38;;;;;;;2.22;2.05;;;;;;;;;;10464950;28;20640;-76
2023/10/28 09:05:40;;;;;;;3.92;2.95;;;;;;;;;;10463029;28;20292;-76
2023/10/28 09:10:47;;;;;;;6.95;2.90;;;;;;;;;;10446751;28;20247;-75
2023/10/28 09:15:48;;;;;;;3.60;2.28;;;;;;;;;;10465369;28;20329;-75
2023/10/28 09:20:49;;;;;;;4.25;1.98;;;;;;;;;;10459331;28;20210;-75
2023/10/28 09:25:50;;;;;;;2.25;1.58;;;;;;;;;;10461732;28;20210;-76
2023/10/28 09:30:51;;;;;;;5.47;1.10;;;;;;;;;;10466141;28;20228;-75
2023/10/28 09:35:56;;;;;;;1.88;1.25;;;;;;;;;;10463520;28;20230;-76
2023/10/28 09:40:58;;;;;;;1.20;0.98;;;;;;;;;;10455517;28;20207;-76
2023/10/28 09:46:00;;;;;;;1.25;1.05;;;;;;;;;;10455996;28;20253;-76
2023/10/28 09:51:02;;;;;;;5.28;1.50;;;;;;;;;;10425996;28;20218;-75
2023/10/28 09:56:04;;;;;;;1.10;1.10;;;;;;;;;;10456582;28;20268;-75
2023/10/28 10:01:40;;;;;;;2.58;1.50;;;;;;;;;;10462007;28;20226;-75
2023/10/28 10:06:42;;;;;;;1.77;1.67;;;;;;;;;;10333202;28;20259;-75
2023/10/28 10:11:43;;;;;;;1.80;1.70;;;;;;;;;;10460162;28;20269;-75
2023/10/28 10:16:52;;;;;;;1.52;1.23;;;;;;;;;;10460050;28;20726;-75
2023/10/28 10:21:53;;;;;;;1.20;1.13;;;;;;;;;;10461122;28;20218;-74
2023/10/28 10:26:55;;;;;;;2.53;1.10;;;;;;;;;;10454373;28;20230;-76
2023/10/28 10:31:57;;;;;;;1.10;1.10;;;;;;;;;;10446219;28;20301;-75
2023/10/28 10:36:58;;;;;;;1.17;0.80;;;;;;;;;;10461984;28;20707;-75
2023/10/28 10:42:03;;;;;;;1.45;0.70;;;;;;;;;;10458922;28;20206;-76
2023/10/28 10:47:05;;;;;;;2.05;0.68;;;;;;;;;;10457645;28;20264;-74
2023/10/28 10:52:08;;;;;;;0.60;0.40;;;;;;;;;;10459301;28;20221;-75
2023/10/28 10:57:10;;;;;;;0.50;0.50;;;;;;;;;;10443662;28;20798;-75
2023/10/28 11:02:12;;;;;;;0.82;0.45;;;;;;;;;;10458102;28;20252;-75
2023/10/28 11:07:13;;;;;;;0.30;0.30;;;;;;;;;;10452766;28;20229;-76
2023/10/28 11:12:14;;;;;;;0.57;0.30;;;;;;;;;;10431465;28;20210;-75
2023/10/28 11:17:15;;;;;;;1.55;0.30;;;;;;;;;;10456614;28;20604;-75
2023/10/28 11:22:17;;;;;;;0.60;0.50;;;;;;;;;;10457157;28;20687;-77
2023/10/28 11:27:20;;;;;;;0.70;0.70;;;;;;;;;;10450303;28;20260;-75
2023/10/28 11:32:21;;;;;;;0.50;0.50;;;;;;;;;;10460790;28;20272;-76
2023/10/28 11:37:23;;;;;;;0.50;0.50;;;;;;;;;;10469300;28;20228;-74
2023/10/28 11:42:25;;;;;;;0.43;0.43;;;;;;;;;;10454412;28;20288;-75
2023/10/28 11:47:27;;;;;;;0.10;0.10;;;;;;;;;;10430019;28;20222;-75
2023/10/28 11:52:28;;;;;;;0.20;0.20;;;;;;;;;;10465145;28;20625;-75
2023/10/28 11:57:29;;;;;;;1.77;0.20;;;;;;;;;;10468139;28;20217;-75
2023/10/28 12:02:30;;;;;;;0.75;0.20;;;;;;;;;;10473136;28;20210;-75
2023/10/28 12:07:31;;;;;;;0.80;0.30;;;;;;;;;;10464663;28;20697;-75
2023/10/28 12:12:32;;;;;;;0.52;0.20;;;;;;;;;;10469182;28;20218;-75
2023/10/28 12:17:33;;;;;;;0.20;0.20;;;;;;;;;;10459560;28;20210;-75
2023/10/28 12:22:38;;;;;;;0.38;0.13;;;;;;;;;;10459055;28;20210;-76
2023/10/28 12:27:39;;;;;;;0.10;0.10;;;;;;;;;;10459140;28;20237;-76
2023/10/28 12:32:40;;;;;;;0.17;0.17;;;;;;;;;;10472698;28;20218;-75
2023/10/28 12:37:41;;;;;;;0.30;0.30;;;;;;;;;;10464407;28;20741;-75
2023/10/28 12:42:42;;;;;;;0.17;0.17;;;;;;;;;;10466011;28;20743;-75
2023/10/28 12:47:43;;;;;;;0.63;0.20;;;;;;;;;;10462473;28;20210;-77
2023/10/28 12:52:44;;;;;;;0.20;0.20;;;;;;;;;;10462960;28;20217;-75
2023/10/28 12:57:45;;;;;;;0.30;0.20;;;;;;;;;;10461582;28;20237;-75
2023/10/28 13:02:48;;;;;;;0.28;0.28;;;;;;;;;;10451742;28;20874;-75
2023/10/28 13:07:51;;;;;;;1.13;0.30;;;;;;;;;;10463152;28;20221;-74
2023/10/28 13:12:53;;;;;;;0.20;0.20;;;;;;;;;;10454457;28;21058;-75
2023/10/28 13:17:56;;;;;;;0.20;0.20;;;;;;;;;;10453814;28;20219;-75
2023/10/28 13:22:57;;;;;;;0.30;0.30;;;;;;;;;;10459945;28;20293;-76
2023/10/28 13:27:58;;;;;;;1.45;0.28;;;;;;;;;;10455031;28;20313;-74
2023/10/28 13:32:59;;;;;;;0.90;0.20;;;;;;;;;;10460833;28;20226;-78
2023/10/28 13:38:00;;;;;;;0.20;0.20;;;;;;;;;;10452096;28;20219;-77
2023/10/28 13:43:02;;;;;;;0.20;0.20;;;;;;;;;;10463574;28;20272;-77
2023/10/28 13:48:04;;;;;;;0.30;0.30;;;;;;;;;;10453620;28;20302;-75
2023/10/28 13:53:06;;;;;;;0.30;0.30;;;;;;;;;;10439017;28;20300;-74
2023/10/28 13:58:07;;;;;;;1.95;0.20;;;;;;;;;;10456124;28;20221;-75
2023/10/28 14:03:11;;;;;;;0.38;0.20;;;;;;;;;;10460671;28;20750;-76
2023/10/28 14:08:13;;;;;;;0.20;0.20;;;;;;;;;;10439148;28;20218;-77
2023/10/28 14:13:14;;;;;;;0.38;0.20;;;;;;;;;;10465444;28;20275;-75
2023/10/28 14:18:18;;;;;;;0.20;0.20;;;;;;;;;;10461506;28;20745;-75
2023/10/28 14:23:19;;;;;;;0.30;0.30;;;;;;;;;;10446368;28;20206;-75
2023/10/28 14:28:20;;;;;;;0.20;0.20;;;;;;;;;;10457726;28;20230;-75
2023/10/28 14:33:21;;;;;;;2.08;0.30;;;;;;;;;;10450766;28;20602;-75
2023/10/28 14:38:23;;;;;;;0.43;0.22;;;;;;;;;;10460098;28;20218;-75
2023/10/28 14:43:24;;;;;;;1.02;0.47;;;;;;;;;;10460677;28;20215;-76
2023/10/28 14:48:25;;;;;;;1.90;0.30;;;;;;;;;;10460157;28;20214;-76
2023/10/28 14:53:26;;;;;;;0.38;0.38;;;;;;;;;;10446189;28;20309;-75
2023/10/28 14:58:28;;;;;;;0.28;0.28;;;;;;;;;;10454087;28;20343;-75
2023/10/28 15:03:29;;;;;;;0.30;0.30;;;;;;;;;;10459992;28;20739;-76
2023/10/28 15:08:30;;;;;;;0.30;0.30;;;;;;;;;;10463385;28;20361;-76
2023/10/28 15:13:31;;;;;;;0.30;0.30;;;;;;;;;;10441052;28;20218;-75
2023/10/28 15:18:32;;;;;;;1.30;0.30;;;;;;;;;;10455215;28;20221;-76
2023/10/28 15:23:33;;;;;;;0.40;0.40;;;;;;;;;;10456292;28;20698;-76
2023/10/28 15:28:34;;;;;;;0.40;0.40;;;;;;;;;;10438505;28;20651;-75
2023/10/28 15:33:36;;;;;;;0.40;0.40;;;;;;;;;;10440684;28;20570;-76
2023/10/28 15:38:37;;;;;;;0.43;0.43;;;;;;;;;;10446287;28;20206;-76
2023/10/28 15:43:38;;;;;;;0.30;0.30;;;;;;;;;;10458643;28;20213;-75
2023/10/28 15:48:46;;;;;;;0.30;0.30;;;;;;;;;;10455612;28;20235;-76
2023/10/28 15:53:47;;;;;;;0.40;0.40;;;;;;;;;;10453656;28;20221;-75
2023/10/28 15:58:51;;;;;;;0.30;0.30;;;;;;;;;;10457800;28;20209;-75
2023/10/28 16:03:52;;;;;;;0.30;0.30;;;;;;;;;;10455669;28;20218;-75
2023/10/28 16:08:53;;;;;;;0.30;0.30;;;;;;;;;;10459305;28;20218;-75
2023/10/28 16:13:54;;;;;;;1.23;0.70;;;;;;;;;;10436250;28;20692;-76
2023/10/28 16:18:57;;;;;;;0.50;0.50;;;;;;;;;;10459979;28;20203;-76
2023/10/28 16:23:59;;;;;;;0.85;0.60;;;;;;;;;;10460901;28;20218;-76
2023/10/28 16:29:00;;;;;;;0.65;0.65;;;;;;;;;;10464241;28;20283;-76
2023/10/28 16:34:01;;;;;;;0.70;0.70;;;;;;;;;;10452966;28;20222;-75
2023/10/28 16:39:03;;;;;;;0.60;0.60;;;;;;;;;;10465053;28;20213;-76
2023/10/28 16:44:08;;;;;;;0.70;0.70;;;;;;;;;;10467263;28;20309;-75
2023/10/28 16:49:11;;;;;;;0.60;0.60;;;;;;;;;;10463631;28;20636;-76
2023/10/28 16:54:13;;;;;;;0.70;0.70;;;;;;;;;;10453652;28;20342;-76
2023/10/28 16:59:14;;;;;;;0.65;0.65;;;;;;;;;;10466538;28;20220;-76
2023/10/28 17:04:15;;;;;;;1.73;1.63;;;;;;;;;;10449671;28;20332;-76
2023/10/28 17:09:16;;;;;;;2.30;2.20;;;;;;;;;;10438269;28;20210;-76
2023/10/28 17:14:17;;;;;;;2.60;2.50;;;;;;;;;;10450030;28;20305;-75
2023/10/28 17:19:18;;;;;;;2.78;2.60;;;;;;;;;;10463685;28;20213;-76
2023/10/28 17:24:19;;;;;;;5.32;2.90;;;;;;;;;;10462602;28;20719;-73
2023/10/28 17:29:21;;;;;;;4.10;3.80;;;;;;;;;;10447848;28;20314;-74
2023/10/28 17:34:22;;;;;;;5.03;3.70;;;;;;;;;;10439994;28;20210;-73
2023/10/28 17:39:23;;;;;;;3.90;3.50;;;;;;;;;;10441582;28;20213;-74
2023/10/28 17:44:25;;;;;;;4.55;3.78;;;;;;;;;;10455845;28;20214;-75
2023/10/28 17:49:26;;;;;;;3.10;2.90;;;;;;;;;;10441231;28;20745;-73
2023/10/28 17:54:27;;;;;;;2.53;2.42;;;;;;;;;;10446122;28;20255;-74
2023/10/28 17:59:28;;;;;;;2.28;2.17;;;;;;;;;;10442942;28;20213;-75
2023/10/28 18:04:29;;;;;;;4.13;2.55;;;;;;;;;;10429643;28;20264;-75
2023/10/28 18:09:31;;;;;;;2.35;2.20;;;;;;;;;;10446588;28;20214;-75
2023/10/28 18:14:32;;;;;;;5.95;2.80;;;;;;;;;;10426780;28;20218;-74
2023/10/28 18:19:33;;;;;;;3.22;2.10;;;;;;;;;;10438374;28;20279;-76
2023/10/28 18:24:34;;;;;;;4.00;1.15;;;;;;;;;;10448553;28;20696;-76
2023/10/28 18:29:35;;;;;;;1.50;1.00;;;;;;;;;;10442918;28;20221;-75
2023/10/28 18:34:36;;;;;;;1.35;0.90;;;;;;;;;;10444543;28;20226;-75
2023/10/28 18:39:37;;;;;;;1.00;0.88;;;;;;;;;;10440409;28;20679;-75
2023/10/28 18:44:38;;;;;;;1.85;0.75;;;;;;;;;;10425727;28;20217;-76
2023/10/28 18:49:40;;;;;;;2.78;0.75;;;;;;;;;;10445899;28;20613;-75
2023/10/28 18:54:42;;;;;;;1.48;1.00;;;;;;;;;;10429033;28;20218;-76
2023/10/28 18:59:43;;;;;;;1.08;0.90;;;;;;;;;;10444557;28;20280;-75
2023/10/28 19:04:44;;;;;;;1.95;1.23;;;;;;;;;;10436006;28;20295;-76
2023/10/28 19:09:45;;;;;;;2.33;0.90;;;;;;;;;;10444785;28;20878;-76
2023/10/28 19:14:46;;;;;;;3.53;1.10;;;;;;;;;;10445391;28;20217;-76
2023/10/28 19:19:48;;;;;;;0.88;0.88;;;;;;;;;;10437914;28;20716;-76
2023/10/28 19:24:49;;;;;;;1.48;0.80;;;;;;;;;;10442683;28;20249;-76
2023/10/28 19:29:52;;;;;;;0.80;0.80;;;;;;;;;;10452918;28;20229;-76
2023/10/28 19:34:53;;;;;;;0.50;0.50;;;;;;;;;;10451179;28;20234;-74
2023/10/28 19:39:56;;;;;;;2.20;0.57;;;;;;;;;;10438125;28;20842;-75
2023/10/28 19:44:57;;;;;;;1.40;0.40;;;;;;;;;;10447779;28;20615;-76
2023/10/28 19:49:58;;;;;;;1.27;0.60;;;;;;;;;;10445224;28;20635;-76
2023/10/28 19:54:59;;;;;;;0.50;0.30;;;;;;;;;;10453909;28;20759;-76
2023/10/28 20:00:02;;;;;;;0.30;0.30;;;;;;;;;;10458262;28;20241;-75
2023/10/28 20:05:07;;;;;;;1.67;0.30;;;;;;;;;;10450369;28;20218;-75
2023/10/28 20:10:08;;;;;;;0.50;0.50;;;;;;;;;;10460890;28;20208;-76
2023/10/28 20:15:10;;;;;;;3.72;0.47;;;;;;;;;;10463164;28;20256;-76
2023/10/28 20:20:13;;;;;;;0.40;0.40;;;;;;;;;;10473041;28;20183;-76
2023/10/28 20:25:14;;;;;;;0.82;0.43;;;;;;;;;;10460046;28;20223;-74
2023/10/28 20:30:15;;;;;;;0.43;0.43;;;;;;;;;;10454947;28;20217;-75
2023/10/28 20:35:16;;;;;;;1.15;0.50;;;;;;;;;;10456707;28;20222;-73
2023/10/28 20:40:17;;;;;;;0.40;0.40;;;;;;;;;;10457435;28;20206;-74
2023/10/28 20:45:20;;;;;;;1.17;0.50;;;;;;;;;;10458891;28;22695;-73
2023/10/28 20:50:21;;;;;;;3.40;0.70;;;;;;;;;;10461331;28;20269;-75
2023/10/28 20:55:23;;;;;;;2.05;0.60;;;;;;;;;;10448778;28;20217;-76
2023/10/28 21:00:24;;;;;;;1.83;0.65;;;;;;;;;;10458174;28;20207;-78
2023/10/28 21:05:25;;;;;;;3.17;0.70;;;;;;;;;;10467193;28;20218;-74
2023/10/28 21:10:27;;;;;;;2.60;2.38;;;;;;;;;;10460432;28;20580;-77
2023/10/28 21:15:28;;;;;;;2.35;0.80;;;;;;;;;;10461706;28;20231;-77
2023/10/28 21:20:29;;;;;;;1.77;0.90;;;;;;;;;;10465061;28;20236;-77
2023/10/28 21:25:30;;;;;;;5.55;0.75;;;;;;;;;;10465552;28;20323;-74
2023/10/28 21:30:32;;;;;;;0.70;0.57;;;;;;;;;;10453628;28;20895;-74
2023/10/28 21:35:33;;;;;;;0.95;0.80;;;;;;;;;;10466397;28;20222;-77
2023/10/28 21:40:34;;;;;;;1.13;1.02;;;;;;;;;;10446354;28;20213;-77
2023/10/28 21:45:35;;;;;;;1.60;1.15;;;;;;;;;;10460560;28;20222;-74
2023/10/28 21:50:36;;;;;;;1.27;1.10;;;;;;;;;;10459247;28;20218;-74
2023/10/28 21:55:41;;;;;;;1.30;1.08;;;;;;;;;;10455970;28;20225;-75
2023/10/28 22:00:42;;;;;;;0.70;0.70;;;;;;;;;;10451396;28;20206;-77
2023/10/28 22:05:43;;;;;;;0.80;0.80;;;;;;;;;;10466220;28;20224;-77
2023/10/28 22:10:45;;;;;;;3.25;0.68;;;;;;;;;;10445264;28;20728;-74
2023/10/28 22:15:46;;;;;;;2.08;0.68;;;;;;;;;;10456232;28;20275;-77
2023/10/28 22:20:47;;;;;;;1.27;0.63;;;;;;;;;;10462741;28;20234;-77
2023/10/28 22:25:49;;;;;;;1.27;0.70;;;;;;;;;;10454968;28;20328;-73
2023/10/28 22:30:52;;;;;;;2.75;0.50;;;;;;;;;;10456176;28;20210;-74
2023/10/28 22:35:53;;;;;;;2.40;0.80;;;;;;;;;;10461889;28;20231;-75
2023/10/28 22:40:54;;;;;;;1.08;0.73;;;;;;;;;;10439841;28;20241;-75
2023/10/28 22:45:55;;;;;;;1.15;0.60;;;;;;;;;;10457864;28;20225;-74
2023/10/28 22:50:56;;;;;;;2.63;0.90;;;;;;;;;;10455998;28;20307;-73
2023/10/28 22:55:57;;;;;;;1.25;0.80;;;;;;;;;;10453414;28;20353;-74
2023/10/28 23:01:02;;;;;;;0.65;0.60;;;;;;;;;;10450949;28;20835;-74
2023/10/28 23:06:03;;;;;;;0.80;0.80;;;;;;;;;;10461333;28;20222;-77
2023/10/28 23:11:04;;;;;;;0.70;0.70;;;;;;;;;;10460271;28;20203;-73
2023/10/28 23:16:05;;;;;;;1.20;0.70;;;;;;;;;;10460586;28;20214;-74
2023/10/28 23:21:06;;;;;;;3.67;0.80;;;;;;;;;;10460566;28;20222;-75
2023/10/28 23:26:07;;;;;;;0.75;0.57;;;;;;;;;;10449481;28;20210;-73
2023/10/28 23:31:08;;;;;;;4.68;0.73;;;;;;;;;;10454432;28;20242;-74
2023/10/28 23:36:09;;;;;;;1.55;0.93;;;;;;;;;;10443027;28;20309;-74
2023/10/28 23:41:10;;;;;;;1.67;0.82;;;;;;;;;;10460650;28;20218;-77
2023/10/28 23:46:11;;;;;;;2.45;1.25;;;;;;;;;;10449673;28;20970;-76
2023/10/28 23:51:13;;;;;;;0.80;0.80;;;;;;;;;;10446268;28;20343;-76
2023/10/28 23:56:15;;;;;;;2.00;0.98;;;;;;;;;;10442739;28;20210;-75
